createdAt,value
2022-12-18T13:16:08.866Z,21.88
2022-12-18T13:18:37.497Z,21.80
2022-12-18T13:21:19.187Z,21.69
2022-12-18T13:23:47.574Z,21.54
2022-12-18T13:26:23.260Z,21.39
2022-12-18T13:28:57.888Z,21.31
2022-12-18T13:31:41.863Z,21.32
2022-12-18T13:34:28.002Z,21.29
2022-12-18T13:37:32.648Z,21.17
2022-12-18T13:40:01.143Z,21.04
2022-12-18T13:42:40.086Z,20.95
2022-12-18T13:45:39.855Z,20.95
2022-12-18T13:48:22.060Z,21.09
2022-12-18T13:51:00.534Z,21.16
2022-12-18T13:53:34.004Z,21.15
2022-12-18T13:56:04.511Z,21.10
2022-12-18T13:58:33.224Z,21.02
2022-12-18T14:01:01.606Z,20.97
2022-12-18T14:03:30.956Z,20.89
2022-12-18T14:06:09.662Z,20.84
2022-12-18T14:08:43.060Z,20.83
2022-12-18T14:11:22.849Z,20.84
2022-12-18T14:13:52.120Z,20.78
2022-12-18T14:16:20.875Z,20.70
2022-12-18T14:19:04.477Z,20.62
2022-12-18T14:21:35.264Z,20.57
2022-12-18T14:24:08.070Z,20.51
2022-12-18T14:26:36.479Z,20.49
2022-12-18T14:29:24.093Z,20.49
2022-12-18T14:32:18.150Z,20.48
2022-12-18T14:34:53.898Z,20.41
2022-12-18T14:37:27.655Z,20.34
2022-12-18T14:40:08.971Z,20.26
2022-12-18T14:42:39.033Z,20.17
2022-12-18T14:45:41.516Z,20.12
2022-12-18T14:48:23.643Z,20.10
2022-12-18T14:50:59.777Z,20.13
2022-12-18T14:53:58.747Z,20.22
2022-12-18T14:56:32.959Z,20.33
2022-12-18T14:59:04.286Z,20.41
2022-12-18T15:01:36.282Z,20.48
2022-12-18T15:04:07.018Z,20.52
2022-12-18T15:06:39.233Z,20.53
2022-12-18T15:09:23.765Z,20.52
2022-12-18T15:11:58.049Z,20.49
2022-12-18T15:14:35.767Z,20.41
2022-12-18T15:17:22.471Z,20.34
2022-12-18T15:19:59.856Z,20.33
2022-12-18T15:22:35.804Z,20.30
2022-12-18T15:25:23.022Z,20.24
2022-12-18T15:27:51.259Z,20.13
2022-12-18T15:30:21.882Z,20.08
2022-12-18T15:32:52.288Z,20.03
2022-12-18T15:35:23.725Z,20.04
2022-12-18T15:37:53.227Z,20.09
2022-12-18T15:40:25.138Z,20.14
2022-12-18T15:42:56.368Z,20.14
2022-12-18T15:45:24.528Z,20.14
2022-12-18T15:47:53.683Z,20.13
2022-12-18T15:50:24.014Z,20.08
2022-12-18T15:52:54.904Z,20.01
2022-12-18T15:55:25.358Z,19.92
2022-12-18T15:57:53.403Z,19.83
2022-12-18T16:00:21.492Z,19.79
2022-12-18T16:02:49.618Z,19.77
2022-12-18T16:05:20.837Z,19.76
2022-12-18T16:07:49.271Z,19.73
2022-12-18T16:10:17.454Z,19.67
2022-12-18T16:12:45.772Z,19.60
2022-12-18T16:15:18.521Z,19.52
2022-12-18T16:17:50.731Z,19.41
2022-12-18T16:20:23.331Z,19.31
2022-12-18T16:22:52.445Z,19.16
2022-12-18T16:25:23.001Z,19.01
2022-12-18T16:27:52.413Z,18.86
2022-12-18T16:30:24.021Z,18.72
2022-12-18T16:32:52.399Z,18.59
2022-12-18T16:35:20.631Z,18.48
2022-12-18T16:37:48.717Z,18.36
2022-12-18T16:40:18.704Z,18.24
2022-12-18T16:42:47.460Z,18.12
2022-12-18T16:45:18.355Z,18.01
2022-12-18T16:47:46.923Z,17.91
2022-12-18T16:50:15.225Z,17.80
2022-12-18T16:52:43.426Z,17.69
2022-12-18T16:55:13.699Z,17.58
2022-12-18T16:57:41.813Z,17.49
2022-12-18T17:00:10.979Z,17.39
2022-12-18T17:02:39.540Z,17.31
2022-12-18T17:05:08.226Z,17.22
2022-12-18T17:07:36.714Z,17.13
2022-12-18T17:10:05.258Z,17.05
2022-12-18T17:12:33.480Z,16.98
2022-12-18T17:15:01.911Z,16.92
2022-12-18T17:17:30.180Z,16.86
2022-12-18T17:19:58.429Z,16.81
2022-12-18T17:22:26.815Z,16.76
2022-12-18T17:24:55.043Z,16.73
2022-12-18T17:27:23.215Z,16.68
2022-12-18T17:29:51.379Z,16.65
2022-12-18T17:32:19.644Z,16.62
2022-12-18T17:34:48.121Z,16.59
2022-12-18T17:37:16.423Z,16.56
2022-12-18T17:39:44.522Z,16.52
2022-12-18T17:42:15.672Z,16.48
2022-12-18T17:44:45.350Z,16.43
2022-12-18T17:47:14.070Z,16.40
2022-12-18T17:49:42.303Z,16.37
2022-12-18T17:52:11.213Z,16.34
2022-12-18T17:54:39.478Z,16.32
2022-12-18T17:57:07.853Z,16.29
2022-12-18T17:59:36.203Z,16.26
2022-12-18T18:02:04.495Z,16.24
2022-12-18T18:04:33.113Z,16.21
2022-12-18T18:07:01.479Z,16.18
2022-12-18T18:09:29.654Z,16.17
2022-12-18T18:11:57.786Z,16.15
2022-12-18T18:14:25.971Z,16.12
2022-12-18T18:16:55.142Z,16.09
2022-12-18T18:19:25.774Z,16.07
2022-12-18T18:21:54.656Z,16.05
2022-12-18T18:24:24.098Z,16.01
2022-12-18T18:26:52.278Z,15.95
2022-12-18T18:29:23.522Z,15.91
2022-12-18T18:31:51.953Z,15.87
2022-12-18T18:34:29.630Z,15.83
2022-12-18T18:36:58.125Z,15.79
2022-12-18T18:39:27.006Z,15.75
2022-12-18T18:41:55.238Z,15.72
2022-12-18T18:44:26.010Z,15.69
2022-12-18T18:46:56.854Z,15.67
2022-12-18T18:49:27.726Z,15.64
2022-12-18T18:51:57.909Z,15.60
2022-12-18T18:54:26.429Z,15.57
2022-12-18T18:59:42.875Z,15.49
2022-12-18T19:02:16.350Z,15.43
2022-12-18T19:04:45.979Z,15.37
2022-12-18T19:07:23.884Z,15.31
2022-12-18T19:10:04.016Z,15.26
2022-12-18T19:12:34.736Z,15.21
2022-12-18T19:15:06.071Z,15.16
2022-12-18T19:17:34.372Z,15.11
2022-12-18T19:20:05.121Z,15.06
2022-12-18T19:22:33.356Z,15.02
2022-12-18T19:25:01.654Z,14.98
2022-12-18T19:27:29.793Z,14.94
2022-12-18T19:29:58.319Z,14.91
2022-12-18T19:32:26.422Z,14.90
2022-12-18T19:34:54.554Z,14.88
2022-12-18T19:37:22.831Z,14.87
2022-12-18T19:39:51.164Z,14.84
2022-12-18T19:42:25.509Z,14.81
2022-12-18T19:44:56.517Z,14.78
2022-12-18T19:47:25.004Z,14.74
2022-12-18T19:49:53.382Z,14.70
2022-12-18T19:52:21.906Z,14.65
2022-12-18T19:54:49.990Z,14.63
2022-12-18T19:57:18.460Z,14.60
2022-12-18T19:59:46.633Z,14.57
2022-12-18T20:02:16.811Z,14.54
2022-12-18T20:04:45.090Z,14.50
2022-12-18T20:07:13.480Z,14.47
2022-12-18T20:09:41.821Z,14.43
2022-12-18T20:12:10.447Z,14.39
2022-12-18T20:14:38.616Z,14.36
2022-12-18T20:17:06.744Z,14.33
2022-12-18T20:19:35.373Z,14.30
2022-12-18T20:22:04.003Z,14.28
2022-12-18T20:24:32.355Z,14.25
2022-12-18T20:27:00.699Z,14.22
2022-12-18T20:29:29.468Z,14.20
2022-12-18T20:31:57.578Z,14.17
2022-12-18T20:34:26.024Z,14.15
2022-12-18T20:36:54.232Z,14.12
2022-12-18T20:39:22.869Z,14.09
2022-12-18T20:41:51.928Z,14.06
2022-12-18T20:44:22.740Z,14.04
2022-12-18T20:46:55.075Z,14.02
2022-12-18T20:49:25.060Z,13.99
2022-12-18T20:51:54.877Z,13.97
2022-12-18T20:54:25.534Z,13.94
2022-12-18T20:56:53.996Z,13.94
2022-12-18T20:59:22.199Z,13.93
2022-12-18T21:01:50.950Z,13.92
2022-12-18T21:04:19.352Z,13.91
2022-12-18T21:06:54.144Z,13.89
2022-12-18T21:09:38.320Z,13.86
2022-12-18T21:12:14.086Z,13.83
2022-12-18T21:14:43.010Z,13.80
2022-12-18T21:17:12.011Z,13.77
2022-12-18T21:19:40.392Z,13.75
2022-12-18T21:22:10.383Z,13.72
2022-12-18T21:24:38.777Z,13.69
2022-12-18T21:27:07.085Z,13.65
2022-12-18T21:29:35.761Z,13.61
2022-12-18T21:32:04.996Z,13.58
2022-12-18T21:34:33.369Z,13.57
2022-12-18T21:37:04.873Z,13.54
2022-12-18T21:39:33.517Z,13.52
2022-12-18T21:42:01.714Z,13.51
2022-12-18T21:44:30.663Z,13.48
2022-12-18T22:13:59.315Z,13.37
2022-12-18T22:16:28.312Z,13.35
2022-12-18T22:18:56.507Z,13.32
2022-12-18T22:21:33.665Z,13.30
2022-12-18T22:24:04.384Z,13.27
2022-12-18T22:26:39.822Z,13.25
2022-12-18T22:29:14.513Z,13.23
2022-12-18T22:31:43.380Z,13.22
2022-12-18T22:34:12.166Z,13.20
2022-12-18T22:36:46.356Z,13.18
2022-12-18T22:39:16.194Z,13.17
2022-12-18T22:41:45.061Z,13.16
2022-12-18T22:44:13.862Z,13.15
2022-12-18T22:47:05.766Z,13.12
2022-12-18T22:49:35.893Z,13.10
2022-12-18T22:52:06.459Z,13.07
2022-12-18T22:54:34.547Z,13.05
2022-12-18T22:57:02.660Z,13.01
2022-12-18T22:59:31.614Z,12.99
2022-12-18T23:01:59.872Z,12.96
2022-12-18T23:04:28.471Z,12.94
2022-12-18T23:07:06.111Z,12.92
2022-12-18T23:09:34.820Z,12.90
2022-12-18T23:12:03.933Z,12.88
2022-12-18T23:14:32.006Z,12.86
2022-12-18T23:17:00.394Z,12.85
2022-12-18T23:19:28.680Z,12.84
2022-12-18T23:21:59.060Z,12.81
2022-12-18T23:24:27.687Z,12.79
2022-12-18T23:26:58.977Z,12.76
2022-12-18T23:29:27.211Z,12.75
2022-12-18T23:31:55.542Z,12.73
2022-12-18T23:34:23.797Z,12.71
2022-12-18T23:36:56.015Z,12.70
2022-12-18T23:39:29.800Z,12.68
2022-12-18T23:41:59.086Z,12.68
2022-12-18T23:44:28.105Z,12.66
2022-12-18T23:46:56.344Z,12.64
2022-12-18T23:49:24.588Z,12.62
2022-12-18T23:51:54.708Z,12.60
2022-12-18T23:54:32.945Z,12.58
2022-12-18T23:57:02.153Z,12.58
2022-12-18T23:59:30.262Z,12.59
